sensor_id;sensor_type;location;lat;lon;timestamp;P1;durP1;ratioP1;P2;durP2;ratioP2
3068;SDS011;1545;51.728;8.796;2023-03-16T00:02:07;16.17;;;7.20;;
3068;SDS011;1545;51.728;8.796;2023-03-16T00:04:34;14.70;;;6.87;;
3068;SDS011;1545;51.728;8.796;2023-03-16T00:07:03;18.93;;;7.47;;
3068;SDS011;1545;51.728;8.796;2023-03-16T00:09:30;18.27;;;6.90;;
3068;SDS011;1545;51.728;8.796;2023-03-16T00:11:59;18.97;;;6.93;;
3068;SDS011;1545;51.728;8.796;2023-03-16T00:14:28;13.83;;;6.60;;
3068;SDS011;1545;51.728;8.796;2023-03-16T00:16:55;17.13;;;7.03;;
3068;SDS011;1545;51.728;8.796;2023-03-16T00:19:20;18.47;;;7.83;;
3068;SDS011;1545;51.728;8.796;2023-03-16T00:21:47;14.07;;;6.80;;
3068;SDS011;1545;51.728;8.796;2023-03-16T00:24:13;13.70;;;6.40;;
3068;SDS011;1545;51.728;8.796;2023-03-16T00:26:42;12.13;;;5.83;;
3068;SDS011;1545;51.728;8.796;2023-03-16T00:29:08;12.90;;;5.93;;
3068;SDS011;1545;51.728;8.796;2023-03-16T00:31:35;15.87;;;5.93;;
3068;SDS011;1545;51.728;8.796;2023-03-16T00:34:02;14.00;;;6.17;;
3068;SDS011;1545;51.728;8.796;2023-03-16T00:36:28;12.77;;;5.20;;
3068;SDS011;1545;51.728;8.796;2023-03-16T00:38:54;16.30;;;5.60;;
3068;SDS011;1545;51.728;8.796;2023-03-16T00:41:20;13.70;;;6.20;;
3068;SDS011;1545;51.728;8.796;2023-03-16T00:43:46;16.13;;;5.20;;
3068;SDS011;1545;51.728;8.796;2023-03-16T00:46:14;14.97;;;5.30;;
3068;SDS011;1545;51.728;8.796;2023-03-16T00:48:41;13.53;;;5.03;;
3068;SDS011;1545;51.728;8.796;2023-03-16T00:51:09;13.63;;;4.93;;
3068;SDS011;1545;51.728;8.796;2023-03-16T00:53:38;14.53;;;5.83;;
3068;SDS011;1545;51.728;8.796;2023-03-16T00:56:04;15.27;;;5.47;;
3068;SDS011;1545;51.728;8.796;2023-03-16T00:58:31;13.30;;;6.00;;
3068;SDS011;1545;51.728;8.796;2023-03-16T01:01:04;18.30;;;5.47;;
3068;SDS011;1545;51.728;8.796;2023-03-16T01:03:32;10.63;;;5.00;;
3068;SDS011;1545;51.728;8.796;2023-03-16T01:06:02;11.90;;;5.00;;
3068;SDS011;1545;51.728;8.796;2023-03-16T01:08:29;13.87;;;5.37;;
3068;SDS011;1545;51.728;8.796;2023-03-16T01:10:56;14.43;;;5.07;;
3068;SDS011;1545;51.728;8.796;2023-03-16T01:13:27;17.27;;;5.73;;
3068;SDS011;1545;51.728;8.796;2023-03-16T01:15:53;11.73;;;5.40;;
3068;SDS011;1545;51.728;8.796;2023-03-16T01:18:18;22.97;;;5.47;;
3068;SDS011;1545;51.728;8.796;2023-03-16T01:20:44;11.17;;;5.10;;
3068;SDS011;1545;51.728;8.796;2023-03-16T01:23:14;15.13;;;5.63;;
3068;SDS011;1545;51.728;8.796;2023-03-16T01:25:46;11.57;;;5.60;;
3068;SDS011;1545;51.728;8.796;2023-03-16T01:28:17;14.00;;;5.70;;
3068;SDS011;1545;51.728;8.796;2023-03-16T01:30:48;18.20;;;6.00;;
3068;SDS011;1545;51.728;8.796;2023-03-16T01:33:19;13.83;;;6.43;;
3068;SDS011;1545;51.728;8.796;2023-03-16T01:35:55;17.87;;;6.40;;
3068;SDS011;1545;51.728;8.796;2023-03-16T01:38:25;13.20;;;5.97;;
3068;SDS011;1545;51.728;8.796;2023-03-16T01:40:51;18.03;;;6.77;;
3068;SDS011;1545;51.728;8.796;2023-03-16T01:43:19;23.60;;;6.97;;
3068;SDS011;1545;51.728;8.796;2023-03-16T01:48:35;17.10;;;6.00;;
3068;SDS011;1545;51.728;8.796;2023-03-16T01:51:06;14.07;;;6.67;;
3068;SDS011;1545;51.728;8.796;2023-03-16T01:53:35;15.33;;;6.23;;
3068;SDS011;1545;51.728;8.796;2023-03-16T01:56:04;15.90;;;6.10;;
3068;SDS011;1545;51.728;8.796;2023-03-16T01:58:33;16.17;;;6.50;;
3068;SDS011;1545;51.728;8.796;2023-03-16T02:01:01;16.03;;;6.17;;
3068;SDS011;1545;51.728;8.796;2023-03-16T02:03:27;13.20;;;6.10;;
3068;SDS011;1545;51.728;8.796;2023-03-16T02:05:55;16.27;;;6.00;;
3068;SDS011;1545;51.728;8.796;2023-03-16T02:08:25;16.13;;;5.90;;
3068;SDS011;1545;51.728;8.796;2023-03-16T02:10:51;16.13;;;6.63;;
3068;SDS011;1545;51.728;8.796;2023-03-16T02:13:20;15.23;;;6.90;;
3068;SDS011;1545;51.728;8.796;2023-03-16T02:15:47;15.03;;;6.37;;
3068;SDS011;1545;51.728;8.796;2023-03-16T02:18:13;14.00;;;7.10;;
3068;SDS011;1545;51.728;8.796;2023-03-16T02:20:45;17.23;;;6.53;;
3068;SDS011;1545;51.728;8.796;2023-03-16T02:23:15;14.50;;;6.83;;
3068;SDS011;1545;51.728;8.796;2023-03-16T02:25:46;12.53;;;6.83;;
3068;SDS011;1545;51.728;8.796;2023-03-16T02:30:51;17.17;;;7.87;;
3068;SDS011;1545;51.728;8.796;2023-03-16T02:33:17;15.77;;;6.77;;
3068;SDS011;1545;51.728;8.796;2023-03-16T02:35:45;15.47;;;7.13;;
3068;SDS011;1545;51.728;8.796;2023-03-16T02:38:10;16.03;;;6.70;;
3068;SDS011;1545;51.728;8.796;2023-03-16T02:40:36;14.23;;;6.97;;
3068;SDS011;1545;51.728;8.796;2023-03-16T02:43:06;15.77;;;7.63;;
3068;SDS011;1545;51.728;8.796;2023-03-16T02:45:46;22.13;;;8.20;;
3068;SDS011;1545;51.728;8.796;2023-03-16T02:48:35;14.70;;;6.93;;
3068;SDS011;1545;51.728;8.796;2023-03-16T02:51:06;13.37;;;6.90;;
3068;SDS011;1545;51.728;8.796;2023-03-16T02:53:32;16.80;;;7.47;;
3068;SDS011;1545;51.728;8.796;2023-03-16T02:55:57;17.17;;;7.70;;
3068;SDS011;1545;51.728;8.796;2023-03-16T02:58:23;16.17;;;7.57;;
3068;SDS011;1545;51.728;8.796;2023-03-16T03:00:49;15.50;;;7.50;;
3068;SDS011;1545;51.728;8.796;2023-03-16T03:03:14;19.67;;;8.37;;
3068;SDS011;1545;51.728;8.796;2023-03-16T03:05:40;16.23;;;8.70;;
3068;SDS011;1545;51.728;8.796;2023-03-16T03:08:05;17.67;;;7.67;;
3068;SDS011;1545;51.728;8.796;2023-03-16T03:10:31;23.13;;;7.87;;
3068;SDS011;1545;51.728;8.796;2023-03-16T03:12:57;24.07;;;7.83;;
3068;SDS011;1545;51.728;8.796;2023-03-16T03:15:23;19.47;;;7.93;;
3068;SDS011;1545;51.728;8.796;2023-03-16T03:17:49;16.47;;;7.80;;
3068;SDS011;1545;51.728;8.796;2023-03-16T03:20:15;18.77;;;7.70;;
3068;SDS011;1545;51.728;8.796;2023-03-16T03:22:42;20.63;;;7.80;;
3068;SDS011;1545;51.728;8.796;2023-03-16T03:25:09;18.90;;;7.93;;
3068;SDS011;1545;51.728;8.796;2023-03-16T03:27:36;14.43;;;7.70;;
3068;SDS011;1545;51.728;8.796;2023-03-16T03:30:02;16.63;;;8.13;;
3068;SDS011;1545;51.728;8.796;2023-03-16T03:32:28;17.93;;;8.23;;
3068;SDS011;1545;51.728;8.796;2023-03-16T03:34:54;22.47;;;7.83;;
3068;SDS011;1545;51.728;8.796;2023-03-16T03:37:19;18.83;;;7.27;;
3068;SDS011;1545;51.728;8.796;2023-03-16T03:39:45;19.87;;;7.87;;
3068;SDS011;1545;51.728;8.796;2023-03-16T03:42:12;18.43;;;7.93;;
3068;SDS011;1545;51.728;8.796;2023-03-16T03:44:37;17.70;;;7.90;;
3068;SDS011;1545;51.728;8.796;2023-03-16T03:47:03;18.77;;;6.97;;
3068;SDS011;1545;51.728;8.796;2023-03-16T03:49:29;20.67;;;7.97;;
3068;SDS011;1545;51.728;8.796;2023-03-16T03:51:55;16.67;;;7.50;;
3068;SDS011;1545;51.728;8.796;2023-03-16T03:54:23;18.53;;;7.93;;
3068;SDS011;1545;51.728;8.796;2023-03-16T03:56:48;17.80;;;7.60;;
3068;SDS011;1545;51.728;8.796;2023-03-16T03:59:15;18.37;;;7.10;;
3068;SDS011;1545;51.728;8.796;2023-03-16T04:01:41;14.97;;;7.07;;
3068;SDS011;1545;51.728;8.796;2023-03-16T04:04:06;15.87;;;7.60;;
3068;SDS011;1545;51.728;8.796;2023-03-16T04:06:32;13.33;;;7.27;;
3068;SDS011;1545;51.728;8.796;2023-03-16T04:08:57;17.83;;;7.93;;
3068;SDS011;1545;51.728;8.796;2023-03-16T04:11:23;18.53;;;7.40;;
3068;SDS011;1545;51.728;8.796;2023-03-16T04:13:50;17.27;;;7.87;;
3068;SDS011;1545;51.728;8.796;2023-03-16T04:16:17;17.43;;;7.67;;
3068;SDS011;1545;51.728;8.796;2023-03-16T04:18:43;19.70;;;7.17;;
3068;SDS011;1545;51.728;8.796;2023-03-16T04:21:14;17.10;;;7.60;;
3068;SDS011;1545;51.728;8.796;2023-03-16T04:23:41;14.37;;;7.60;;
3068;SDS011;1545;51.728;8.796;2023-03-16T04:26:07;20.13;;;7.97;;
3068;SDS011;1545;51.728;8.796;2023-03-16T04:28:32;16.67;;;7.13;;
3068;SDS011;1545;51.728;8.796;2023-03-16T04:31:01;19.23;;;7.73;;
3068;SDS011;1545;51.728;8.796;2023-03-16T04:33:29;23.77;;;7.97;;
3068;SDS011;1545;51.728;8.796;2023-03-16T04:35:56;17.63;;;7.87;;
3068;SDS011;1545;51.728;8.796;2023-03-16T04:38:21;17.73;;;8.30;;
3068;SDS011;1545;51.728;8.796;2023-03-16T04:40:47;13.77;;;7.53;;
3068;SDS011;1545;51.728;8.796;2023-03-16T04:43:12;17.10;;;8.00;;
3068;SDS011;1545;51.728;8.796;2023-03-16T04:45:38;16.83;;;8.07;;
3068;SDS011;1545;51.728;8.796;2023-03-16T04:48:04;16.57;;;7.47;;
3068;SDS011;1545;51.728;8.796;2023-03-16T04:50:29;15.20;;;8.27;;
3068;SDS011;1545;51.728;8.796;2023-03-16T04:52:55;21.33;;;8.80;;
3068;SDS011;1545;51.728;8.796;2023-03-16T04:55:20;17.70;;;8.57;;
3068;SDS011;1545;51.728;8.796;2023-03-16T04:57:46;24.73;;;8.53;;
3068;SDS011;1545;51.728;8.796;2023-03-16T05:00:12;15.60;;;8.13;;
3068;SDS011;1545;51.728;8.796;2023-03-16T05:02:46;26.37;;;8.93;;
3068;SDS011;1545;51.728;8.796;2023-03-16T05:05:12;17.17;;;9.10;;
3068;SDS011;1545;51.728;8.796;2023-03-16T05:07:39;17.93;;;8.83;;
3068;SDS011;1545;51.728;8.796;2023-03-16T05:10:06;23.10;;;9.60;;
3068;SDS011;1545;51.728;8.796;2023-03-16T05:12:32;21.67;;;9.17;;
3068;SDS011;1545;51.728;8.796;2023-03-16T05:14:57;22.03;;;8.80;;
3068;SDS011;1545;51.728;8.796;2023-03-16T05:17:23;16.43;;;8.40;;
3068;SDS011;1545;51.728;8.796;2023-03-16T05:19:49;17.47;;;8.33;;
3068;SDS011;1545;51.728;8.796;2023-03-16T05:22:14;20.87;;;8.37;;
3068;SDS011;1545;51.728;8.796;2023-03-16T05:24:40;17.07;;;8.57;;
3068;SDS011;1545;51.728;8.796;2023-03-16T05:27:05;19.07;;;8.00;;
3068;SDS011;1545;51.728;8.796;2023-03-16T05:29:31;17.40;;;7.90;;
3068;SDS011;1545;51.728;8.796;2023-03-16T05:31:56;16.97;;;8.57;;
3068;SDS011;1545;51.728;8.796;2023-03-16T05:34:23;13.93;;;7.60;;
3068;SDS011;1545;51.728;8.796;2023-03-16T05:36:49;16.03;;;8.40;;
3068;SDS011;1545;51.728;8.796;2023-03-16T05:39:14;17.07;;;8.30;;
3068;SDS011;1545;51.728;8.796;2023-03-16T05:41:40;16.77;;;7.63;;
3068;SDS011;1545;51.728;8.796;2023-03-16T05:44:06;15.37;;;8.17;;
3068;SDS011;1545;51.728;8.796;2023-03-16T05:46:32;19.73;;;9.00;;
3068;SDS011;1545;51.728;8.796;2023-03-16T05:48:58;21.03;;;8.40;;
3068;SDS011;1545;51.728;8.796;2023-03-16T05:51:23;20.17;;;9.07;;
3068;SDS011;1545;51.728;8.796;2023-03-16T05:53:52;16.53;;;7.60;;
3068;SDS011;1545;51.728;8.796;2023-03-16T05:56:23;19.67;;;8.23;;
3068;SDS011;1545;51.728;8.796;2023-03-16T05:58:50;15.93;;;8.50;;
3068;SDS011;1545;51.728;8.796;2023-03-16T06:01:16;16.33;;;8.20;;
3068;SDS011;1545;51.728;8.796;2023-03-16T06:03:44;22.63;;;8.53;;
3068;SDS011;1545;51.728;8.796;2023-03-16T06:06:10;18.13;;;8.70;;
3068;SDS011;1545;51.728;8.796;2023-03-16T06:08:36;20.83;;;8.97;;
3068;SDS011;1545;51.728;8.796;2023-03-16T06:11:01;17.00;;;8.97;;
3068;SDS011;1545;51.728;8.796;2023-03-16T06:13:28;18.60;;;9.03;;
3068;SDS011;1545;51.728;8.796;2023-03-16T06:15:53;16.63;;;8.27;;
3068;SDS011;1545;51.728;8.796;2023-03-16T06:18:19;18.43;;;8.37;;
3068;SDS011;1545;51.728;8.796;2023-03-16T06:20:45;19.23;;;8.07;;
3068;SDS011;1545;51.728;8.796;2023-03-16T06:23:11;17.37;;;7.50;;
3068;SDS011;1545;51.728;8.796;2023-03-16T06:25:37;19.17;;;7.30;;
3068;SDS011;1545;51.728;8.796;2023-03-16T06:28:03;23.73;;;7.67;;
3068;SDS011;1545;51.728;8.796;2023-03-16T06:30:29;13.67;;;6.73;;
3068;SDS011;1545;51.728;8.796;2023-03-16T06:32:55;13.30;;;6.40;;
3068;SDS011;1545;51.728;8.796;2023-03-16T06:35:21;12.73;;;6.87;;
3068;SDS011;1545;51.728;8.796;2023-03-16T06:37:46;18.90;;;6.20;;
3068;SDS011;1545;51.728;8.796;2023-03-16T06:40:12;17.50;;;6.67;;
3068;SDS011;1545;51.728;8.796;2023-03-16T06:42:37;12.63;;;5.90;;
3068;SDS011;1545;51.728;8.796;2023-03-16T06:45:03;13.60;;;6.23;;
3068;SDS011;1545;51.728;8.796;2023-03-16T06:47:29;12.73;;;6.17;;
3068;SDS011;1545;51.728;8.796;2023-03-16T06:49:55;19.83;;;6.37;;
3068;SDS011;1545;51.728;8.796;2023-03-16T06:52:21;17.47;;;6.03;;
3068;SDS011;1545;51.728;8.796;2023-03-16T06:54:46;16.63;;;6.47;;
3068;SDS011;1545;51.728;8.796;2023-03-16T06:57:12;13.00;;;5.80;;
3068;SDS011;1545;51.728;8.796;2023-03-16T06:59:38;14.93;;;6.27;;
3068;SDS011;1545;51.728;8.796;2023-03-16T07:02:03;13.00;;;6.07;;
3068;SDS011;1545;51.728;8.796;2023-03-16T07:04:30;14.47;;;6.60;;
3068;SDS011;1545;51.728;8.796;2023-03-16T07:06:56;13.60;;;5.90;;
3068;SDS011;1545;51.728;8.796;2023-03-16T07:09:22;18.47;;;5.70;;
3068;SDS011;1545;51.728;8.796;2023-03-16T07:11:47;10.67;;;5.70;;
3068;SDS011;1545;51.728;8.796;2023-03-16T07:14:13;12.60;;;6.07;;
3068;SDS011;1545;51.728;8.796;2023-03-16T07:16:39;11.43;;;5.93;;
3068;SDS011;1545;51.728;8.796;2023-03-16T07:19:04;13.80;;;6.30;;
3068;SDS011;1545;51.728;8.796;2023-03-16T07:21:30;17.97;;;6.27;;
3068;SDS011;1545;51.728;8.796;2023-03-16T07:24:03;16.97;;;6.17;;
3068;SDS011;1545;51.728;8.796;2023-03-16T07:26:29;13.73;;;6.53;;
3068;SDS011;1545;51.728;8.796;2023-03-16T07:28:56;14.10;;;6.17;;
3068;SDS011;1545;51.728;8.796;2023-03-16T07:31:22;16.40;;;6.67;;
3068;SDS011;1545;51.728;8.796;2023-03-16T07:33:48;12.17;;;6.57;;
3068;SDS011;1545;51.728;8.796;2023-03-16T07:36:14;14.50;;;6.13;;
3068;SDS011;1545;51.728;8.796;2023-03-16T07:38:39;16.33;;;7.87;;
3068;SDS011;1545;51.728;8.796;2023-03-16T07:41:06;17.63;;;7.73;;
3068;SDS011;1545;51.728;8.796;2023-03-16T07:43:31;16.83;;;6.40;;
3068;SDS011;1545;51.728;8.796;2023-03-16T07:45:57;10.90;;;4.80;;
3068;SDS011;1545;51.728;8.796;2023-03-16T07:48:23;11.77;;;5.97;;
3068;SDS011;1545;51.728;8.796;2023-03-16T07:50:48;12.40;;;5.87;;
3068;SDS011;1545;51.728;8.796;2023-03-16T07:53:14;11.60;;;6.03;;
3068;SDS011;1545;51.728;8.796;2023-03-16T07:55:41;14.63;;;6.53;;
3068;SDS011;1545;51.728;8.796;2023-03-16T07:58:06;18.80;;;5.97;;
3068;SDS011;1545;51.728;8.796;2023-03-16T08:00:34;12.13;;;6.73;;
3068;SDS011;1545;51.728;8.796;2023-03-16T08:02:59;16.70;;;7.20;;
3068;SDS011;1545;51.728;8.796;2023-03-16T08:05:26;13.73;;;6.33;;
3068;SDS011;1545;51.728;8.796;2023-03-16T08:07:51;13.07;;;6.43;;
3068;SDS011;1545;51.728;8.796;2023-03-16T08:10:17;20.80;;;6.33;;
3068;SDS011;1545;51.728;8.796;2023-03-16T08:12:43;12.53;;;6.27;;
3068;SDS011;1545;51.728;8.796;2023-03-16T08:15:09;15.10;;;6.07;;
3068;SDS011;1545;51.728;8.796;2023-03-16T08:17:35;12.93;;;5.73;;
3068;SDS011;1545;51.728;8.796;2023-03-16T08:20:02;13.07;;;6.37;;
3068;SDS011;1545;51.728;8.796;2023-03-16T08:22:32;17.23;;;6.33;;
3068;SDS011;1545;51.728;8.796;2023-03-16T08:25:00;15.67;;;6.33;;
3068;SDS011;1545;51.728;8.796;2023-03-16T08:27:27;15.10;;;6.67;;
3068;SDS011;1545;51.728;8.796;2023-03-16T08:29:53;12.17;;;6.20;;
3068;SDS011;1545;51.728;8.796;2023-03-16T08:32:19;12.10;;;6.30;;
3068;SDS011;1545;51.728;8.796;2023-03-16T08:34:44;13.67;;;6.57;;
3068;SDS011;1545;51.728;8.796;2023-03-16T08:37:11;12.73;;;6.30;;
3068;SDS011;1545;51.728;8.796;2023-03-16T08:39:39;13.77;;;6.07;;
3068;SDS011;1545;51.728;8.796;2023-03-16T08:42:06;11.67;;;6.50;;
3068;SDS011;1545;51.728;8.796;2023-03-16T08:44:32;16.77;;;6.53;;
3068;SDS011;1545;51.728;8.796;2023-03-16T08:46:57;15.73;;;6.60;;
3068;SDS011;1545;51.728;8.796;2023-03-16T08:49:23;16.60;;;7.30;;
3068;SDS011;1545;51.728;8.796;2023-03-16T08:51:49;13.57;;;7.03;;
3068;SDS011;1545;51.728;8.796;2023-03-16T08:54:15;13.73;;;6.70;;
3068;SDS011;1545;51.728;8.796;2023-03-16T08:56:41;12.87;;;6.77;;
3068;SDS011;1545;51.728;8.796;2023-03-16T08:59:07;12.80;;;6.40;;
3068;SDS011;1545;51.728;8.796;2023-03-16T09:01:32;17.70;;;7.37;;
3068;SDS011;1545;51.728;8.796;2023-03-16T09:03:58;13.53;;;6.23;;
3068;SDS011;1545;51.728;8.796;2023-03-16T09:06:24;16.07;;;6.90;;
3068;SDS011;1545;51.728;8.796;2023-03-16T09:08:50;16.73;;;7.67;;
3068;SDS011;1545;51.728;8.796;2023-03-16T09:11:17;16.20;;;7.07;;
3068;SDS011;1545;51.728;8.796;2023-03-16T09:13:43;11.47;;;6.50;;
3068;SDS011;1545;51.728;8.796;2023-03-16T09:16:10;12.50;;;6.40;;
3068;SDS011;1545;51.728;8.796;2023-03-16T09:18:36;12.83;;;6.30;;
3068;SDS011;1545;51.728;8.796;2023-03-16T09:21:03;14.00;;;6.43;;
3068;SDS011;1545;51.728;8.796;2023-03-16T09:23:32;13.97;;;6.70;;
3068;SDS011;1545;51.728;8.796;2023-03-16T09:25:59;15.43;;;7.40;;
3068;SDS011;1545;51.728;8.796;2023-03-16T09:28:27;14.40;;;6.90;;
3068;SDS011;1545;51.728;8.796;2023-03-16T09:30:54;10.37;;;6.33;;
3068;SDS011;1545;51.728;8.796;2023-03-16T09:33:21;17.93;;;7.07;;
3068;SDS011;1545;51.728;8.796;2023-03-16T09:35:48;15.60;;;6.53;;
3068;SDS011;1545;51.728;8.796;2023-03-16T09:38:14;12.93;;;6.40;;
3068;SDS011;1545;51.728;8.796;2023-03-16T09:40:41;10.53;;;5.93;;
3068;SDS011;1545;51.728;8.796;2023-03-16T09:43:09;10.90;;;6.70;;
3068;SDS011;1545;51.728;8.796;2023-03-16T09:45:47;10.20;;;6.20;;
3068;SDS011;1545;51.728;8.796;2023-03-16T09:48:22;14.80;;;6.60;;
3068;SDS011;1545;51.728;8.796;2023-03-16T09:50:49;9.90;;;6.20;;
3068;SDS011;1545;51.728;8.796;2023-03-16T09:58:44;13.50;;;6.73;;
3068;SDS011;1545;51.728;8.796;2023-03-16T10:01:20;12.33;;;6.17;;
3068;SDS011;1545;51.728;8.796;2023-03-16T10:06:47;15.20;;;6.53;;
3068;SDS011;1545;51.728;8.796;2023-03-16T10:09:23;14.23;;;6.80;;
3068;SDS011;1545;51.728;8.796;2023-03-16T10:11:57;11.83;;;7.10;;
3068;SDS011;1545;51.728;8.796;2023-03-16T10:14:38;11.63;;;7.33;;
3068;SDS011;1545;51.728;8.796;2023-03-16T10:17:25;15.30;;;6.80;;
3068;SDS011;1545;51.728;8.796;2023-03-16T10:20:03;12.83;;;6.90;;
3068;SDS011;1545;51.728;8.796;2023-03-16T10:22:36;13.73;;;6.80;;
3068;SDS011;1545;51.728;8.796;2023-03-16T10:27:34;22.23;;;6.67;;
3068;SDS011;1545;51.728;8.796;2023-03-16T10:30:03;12.80;;;6.50;;
3068;SDS011;1545;51.728;8.796;2023-03-16T10:32:42;16.43;;;8.47;;
3068;SDS011;1545;51.728;8.796;2023-03-16T10:35:21;13.60;;;6.60;;
3068;SDS011;1545;51.728;8.796;2023-03-16T10:38:06;10.13;;;6.57;;
3068;SDS011;1545;51.728;8.796;2023-03-16T10:40:36;10.27;;;6.10;;
3068;SDS011;1545;51.728;8.796;2023-03-16T10:43:04;12.87;;;6.80;;
3068;SDS011;1545;51.728;8.796;2023-03-16T10:45:31;16.07;;;7.07;;
3068;SDS011;1545;51.728;8.796;2023-03-16T10:48:12;12.47;;;6.27;;
3068;SDS011;1545;51.728;8.796;2023-03-16T10:50:41;11.20;;;5.83;;
3068;SDS011;1545;51.728;8.796;2023-03-16T10:53:22;16.07;;;7.33;;
3068;SDS011;1545;51.728;8.796;2023-03-16T10:55:55;12.53;;;5.90;;
3068;SDS011;1545;51.728;8.796;2023-03-16T10:58:28;12.30;;;6.70;;
3068;SDS011;1545;51.728;8.796;2023-03-16T11:00:54;9.43;;;5.90;;
3068;SDS011;1545;51.728;8.796;2023-03-16T11:03:28;12.30;;;6.30;;
3068;SDS011;1545;51.728;8.796;2023-03-16T11:06:00;17.57;;;7.13;;
3068;SDS011;1545;51.728;8.796;2023-03-16T11:08:30;15.47;;;7.10;;
3068;SDS011;1545;51.728;8.796;2023-03-16T11:11:16;17.23;;;8.67;;
3068;SDS011;1545;51.728;8.796;2023-03-16T11:13:48;14.47;;;7.80;;
3068;SDS011;1545;51.728;8.796;2023-03-16T11:16:19;21.73;;;12.50;;
3068;SDS011;1545;51.728;8.796;2023-03-16T11:18:56;13.83;;;6.13;;
3068;SDS011;1545;51.728;8.796;2023-03-16T11:27:31;14.80;;;7.10;;
3068;SDS011;1545;51.728;8.796;2023-03-16T11:30:09;16.30;;;6.70;;
3068;SDS011;1545;51.728;8.796;2023-03-16T11:32:42;10.73;;;6.27;;
3068;SDS011;1545;51.728;8.796;2023-03-16T11:37:52;33.90;;;11.50;;
3068;SDS011;1545;51.728;8.796;2023-03-16T11:57:00;42.50;;;14.07;;
3068;SDS011;1545;51.728;8.796;2023-03-16T12:02:43;9.70;;;5.20;;
3068;SDS011;1545;51.728;8.796;2023-03-16T12:10:55;11.73;;;5.97;;
3068;SDS011;1545;51.728;8.796;2023-03-16T12:16:33;19.77;;;9.23;;
3068;SDS011;1545;51.728;8.796;2023-03-16T12:19:14;11.30;;;6.20;;
3068;SDS011;1545;51.728;8.796;2023-03-16T12:21:46;9.93;;;5.30;;
3068;SDS011;1545;51.728;8.796;2023-03-16T12:24:23;7.60;;;4.63;;
3068;SDS011;1545;51.728;8.796;2023-03-16T12:26:52;8.33;;;5.63;;
3068;SDS011;1545;51.728;8.796;2023-03-16T12:32:08;13.10;;;5.33;;
3068;SDS011;1545;51.728;8.796;2023-03-16T12:34:40;9.30;;;5.30;;
3068;SDS011;1545;51.728;8.796;2023-03-16T12:40:05;14.57;;;7.37;;
3068;SDS011;1545;51.728;8.796;2023-03-16T12:43:14;12.23;;;4.83;;
3068;SDS011;1545;51.728;8.796;2023-03-16T12:46:03;7.53;;;4.80;;
3068;SDS011;1545;51.728;8.796;2023-03-16T12:48:51;8.43;;;4.27;;
3068;SDS011;1545;51.728;8.796;2023-03-16T12:51:20;16.60;;;5.10;;
3068;SDS011;1545;51.728;8.796;2023-03-16T12:53:57;16.43;;;6.33;;
3068;SDS011;1545;51.728;8.796;2023-03-16T12:56:30;8.83;;;4.97;;
3068;SDS011;1545;51.728;8.796;2023-03-16T12:58:59;8.90;;;4.67;;
3068;SDS011;1545;51.728;8.796;2023-03-16T13:01:28;7.97;;;4.70;;
3068;SDS011;1545;51.728;8.796;2023-03-16T13:04:04;9.00;;;4.23;;
3068;SDS011;1545;51.728;8.796;2023-03-16T13:06:36;8.60;;;4.00;;
3068;SDS011;1545;51.728;8.796;2023-03-16T13:09:05;8.03;;;4.03;;
3068;SDS011;1545;51.728;8.796;2023-03-16T13:11:42;6.40;;;3.77;;
3068;SDS011;1545;51.728;8.796;2023-03-16T13:19:42;6.63;;;3.83;;
3068;SDS011;1545;51.728;8.796;2023-03-16T13:22:27;9.57;;;5.30;;
3068;SDS011;1545;51.728;8.796;2023-03-16T13:24:55;5.67;;;3.60;;
3068;SDS011;1545;51.728;8.796;2023-03-16T13:27:39;7.43;;;3.70;;
3068;SDS011;1545;51.728;8.796;2023-03-16T13:30:17;8.27;;;3.57;;
3068;SDS011;1545;51.728;8.796;2023-03-16T13:32:51;6.47;;;3.80;;
3068;SDS011;1545;51.728;8.796;2023-03-16T13:35:18;8.13;;;3.37;;
3068;SDS011;1545;51.728;8.796;2023-03-16T13:37:48;6.33;;;4.03;;
3068;SDS011;1545;51.728;8.796;2023-03-16T13:40:24;6.60;;;3.43;;
3068;SDS011;1545;51.728;8.796;2023-03-16T13:42:51;4.63;;;3.30;;
3068;SDS011;1545;51.728;8.796;2023-03-16T13:45:20;6.93;;;3.40;;
3068;SDS011;1545;51.728;8.796;2023-03-16T13:47:48;5.60;;;3.50;;
3068;SDS011;1545;51.728;8.796;2023-03-16T13:50:15;5.43;;;3.40;;
3068;SDS011;1545;51.728;8.796;2023-03-16T13:52:42;15.63;;;5.77;;
3068;SDS011;1545;51.728;8.796;2023-03-16T13:55:17;9.10;;;4.17;;
3068;SDS011;1545;51.728;8.796;2023-03-16T13:57:49;8.47;;;4.50;;
3068;SDS011;1545;51.728;8.796;2023-03-16T14:00:17;6.90;;;3.63;;
3068;SDS011;1545;51.728;8.796;2023-03-16T14:02:46;8.73;;;4.00;;
3068;SDS011;1545;51.728;8.796;2023-03-16T14:05:17;8.00;;;4.23;;
3068;SDS011;1545;51.728;8.796;2023-03-16T14:07:48;5.23;;;3.43;;
3068;SDS011;1545;51.728;8.796;2023-03-16T14:10:15;6.03;;;3.57;;
3068;SDS011;1545;51.728;8.796;2023-03-16T14:13:05;4.80;;;3.27;;
3068;SDS011;1545;51.728;8.796;2023-03-16T14:15:46;11.07;;;4.43;;
3068;SDS011;1545;51.728;8.796;2023-03-16T14:18:15;5.40;;;3.97;;
3068;SDS011;1545;51.728;8.796;2023-03-16T14:20:45;10.97;;;4.27;;
3068;SDS011;1545;51.728;8.796;2023-03-16T14:23:29;6.47;;;4.20;;
3068;SDS011;1545;51.728;8.796;2023-03-16T14:25:58;9.07;;;5.13;;
3068;SDS011;1545;51.728;8.796;2023-03-16T14:28:27;9.83;;;4.50;;
3068;SDS011;1545;51.728;8.796;2023-03-16T14:31:06;10.50;;;4.50;;
3068;SDS011;1545;51.728;8.796;2023-03-16T14:33:35;7.17;;;4.30;;
3068;SDS011;1545;51.728;8.796;2023-03-16T14:38:38;12.87;;;4.93;;
3068;SDS011;1545;51.728;8.796;2023-03-16T14:43:45;5.63;;;3.80;;
3068;SDS011;1545;51.728;8.796;2023-03-16T14:46:28;9.10;;;4.77;;
3068;SDS011;1545;51.728;8.796;2023-03-16T14:49:08;11.70;;;4.50;;
3068;SDS011;1545;51.728;8.796;2023-03-16T14:51:43;7.93;;;3.80;;
3068;SDS011;1545;51.728;8.796;2023-03-16T14:54:14;7.63;;;4.50;;
3068;SDS011;1545;51.728;8.796;2023-03-16T14:56:41;5.57;;;3.67;;
3068;SDS011;1545;51.728;8.796;2023-03-16T14:59:08;8.97;;;4.87;;
3068;SDS011;1545;51.728;8.796;2023-03-16T15:01:34;9.00;;;3.97;;
3068;SDS011;1545;51.728;8.796;2023-03-16T15:04:00;5.73;;;3.70;;
3068;SDS011;1545;51.728;8.796;2023-03-16T15:06:27;13.13;;;4.90;;
3068;SDS011;1545;51.728;8.796;2023-03-16T15:08:55;11.47;;;4.80;;
3068;SDS011;1545;51.728;8.796;2023-03-16T15:11:21;14.40;;;4.33;;
3068;SDS011;1545;51.728;8.796;2023-03-16T15:13:48;7.50;;;4.50;;
3068;SDS011;1545;51.728;8.796;2023-03-16T15:16:14;7.83;;;4.17;;
3068;SDS011;1545;51.728;8.796;2023-03-16T15:18:40;6.47;;;3.83;;
3068;SDS011;1545;51.728;8.796;2023-03-16T15:21:16;7.50;;;4.43;;
3068;SDS011;1545;51.728;8.796;2023-03-16T15:23:44;10.43;;;4.27;;
3068;SDS011;1545;51.728;8.796;2023-03-16T15:26:11;6.80;;;4.37;;
3068;SDS011;1545;51.728;8.796;2023-03-16T15:28:38;7.30;;;4.30;;
3068;SDS011;1545;51.728;8.796;2023-03-16T15:31:04;9.97;;;4.63;;
3068;SDS011;1545;51.728;8.796;2023-03-16T15:33:30;10.27;;;3.90;;
3068;SDS011;1545;51.728;8.796;2023-03-16T15:35:56;8.10;;;3.87;;
3068;SDS011;1545;51.728;8.796;2023-03-16T15:38:25;8.23;;;5.23;;
3068;SDS011;1545;51.728;8.796;2023-03-16T15:40:53;10.23;;;4.67;;
3068;SDS011;1545;51.728;8.796;2023-03-16T15:43:20;7.73;;;4.10;;
3068;SDS011;1545;51.728;8.796;2023-03-16T15:45:47;7.53;;;3.60;;
3068;SDS011;1545;51.728;8.796;2023-03-16T15:48:15;6.80;;;4.57;;
3068;SDS011;1545;51.728;8.796;2023-03-16T15:50:45;6.67;;;4.30;;
3068;SDS011;1545;51.728;8.796;2023-03-16T15:53:31;8.77;;;4.30;;
3068;SDS011;1545;51.728;8.796;2023-03-16T15:56:07;7.23;;;4.37;;
3068;SDS011;1545;51.728;8.796;2023-03-16T15:58:35;6.27;;;4.10;;
3068;SDS011;1545;51.728;8.796;2023-03-16T16:01:02;10.10;;;4.87;;
3068;SDS011;1545;51.728;8.796;2023-03-16T16:03:28;6.33;;;4.00;;
3068;SDS011;1545;51.728;8.796;2023-03-16T16:05:54;6.57;;;4.13;;
3068;SDS011;1545;51.728;8.796;2023-03-16T16:08:20;25.13;;;4.73;;
3068;SDS011;1545;51.728;8.796;2023-03-16T16:10:46;7.20;;;4.43;;
3068;SDS011;1545;51.728;8.796;2023-03-16T16:13:18;12.80;;;5.57;;
3068;SDS011;1545;51.728;8.796;2023-03-16T16:15:46;7.40;;;4.40;;
3068;SDS011;1545;51.728;8.796;2023-03-16T16:18:31;12.10;;;4.90;;
3068;SDS011;1545;51.728;8.796;2023-03-16T16:21:01;7.60;;;4.63;;
3068;SDS011;1545;51.728;8.796;2023-03-16T16:23:28;10.23;;;4.30;;
3068;SDS011;1545;51.728;8.796;2023-03-16T16:25:56;12.63;;;4.33;;